Flight Track Log - Related Links

Times and Time Zones

All times are in EDT time to prevent confusion due to time zone crossing. See the DLH150 flight status page for this flight to view local times or setup timezone preferences in your user account.

Time Position Orientation Groundspeed Altitude Reporting Facility
EDT Latitude Longitude Course Direction KTS MPH feet Rate Location/Type
Mon 03:53:15 PM 50.0175 8.5889 107° East  Level Estimated
Mon 03:54:15 PM 49.9815 8.7717 107° East  Level Estimated
Mon 03:55:15 PM 49.9453 8.9543 107° East  Level Estimated
Mon 03:56:15 PM 49.9088 9.1365 107° East  Level Estimated
Mon 03:57:15 PM 49.8720 9.3185 107° East  Level Estimated
Mon 03:58:15 PM 49.8350 9.5003 108° East  Level Estimated
Mon 03:59:15 PM 49.7976 9.6817 108° East  Level Estimated
Mon 04:00:15 PM 49.7600 9.8629 108° East  Level Estimated
Mon 04:01:15 PM 49.7221 10.0437 108° East  Level Estimated
Mon 04:02:15 PM 49.6839 10.2243 108° East  Level Estimated
Mon 04:03:15 PM 49.6454 10.4047 108° East  Level Estimated
Mon 04:04:15 PM 49.6066 10.5847 108° East  Level Estimated
Mon 04:05:15 PM 49.5676 10.7644 109° East  Level Estimated
Mon 04:06:15 PM 49.5283 10.9439 109° East  Level Estimated
Mon 04:07:15 PM 49.4887 11.1230 289° West  Level Estimated
Mon 04:08:15 PM 49.5283 10.9439 109° East  Level Estimated
Mon 04:09:15 PM 49.4887 11.1230 289° West  Level Estimated
Mon 04:10:15 PM 49.5283 10.9439 109° East  Level Estimated
Mon 04:11:15 PM 49.4887 11.1230 289° West  Level Estimated
Mon 04:12:15 PM 49.5283 10.9439 109° East  Level Estimated
Mon 04:13:15 PM 49.4887 11.1230 289° West  Level Estimated
Mon 04:14:15 PM 49.5283 10.9439 109° East  Level Estimated
Mon 04:15:15 PM 49.4887 11.1230 109° East  Level Estimated

Login

Don't have an account? Register now (free) for customized features, flight alerts, and more!